EGXC

RAF Coningsby Airport

Coningsby, United Kingdom
METAR EGXC 181950Z 15010KT CAVOK 03/00 Q1012 BLU
Observed Flight Rules
Jan-18 @ 19:50 UTC (an hour ago) Visual Flight Rules
Wind Visibility Clouds
150° at 10 knots 10,000+ meters
  • Clear skies
Temperatures Readings
Current 3°C / 37°F
Dewpoint 0°C / 32°F
Humidity 81%
Altimeter 29.88" Hg
Pressure 1011.92 hPa
Elevation 7
METAR EGXC 181950Z 15010KT CAVOK 03/00 Q1012 BLU
Observed Flight Rules
Jan-18 @ 19:50 UTC
(an hour ago)
VFR
Wind Visibility
150° at 10 knots 10,000+ meters
Clouds
  • Clear skies
Temperature Dewpoint
3°C / 37°F 0°C / 32°F
Humidity Altimeter Pressure
81% 29.88" Hg 1011.92 hPa